Time;durP1;ratioP1;P1;durP2;ratioP2;P2;SDS_P1;SDS_P2;PMS_P1;PMS_P2;Temp;Humidity;BMP_temperature;BMP_pressure;BME280_temperature;BME280_humidity;BME280_pressure;Samples;Min_cycle;Max_cycle;Signal;HPM_P1;HPM_P2
2023/04/04 00:06:11;;;;;;;1999.90;999.90;;;2.90;99.90;;;;;;6737869;88;20317;-79
2023/04/04 00:16:12;;;;;;;1999.90;999.90;;;2.70;99.90;;;;;;6737301;88;20271;-79
2023/04/04 00:26:12;;;;;;;1999.90;999.90;;;2.60;99.90;;;;;;6739217;88;20202;-79
2023/04/04 00:36:13;;;;;;;1999.90;999.90;;;2.40;99.90;;;;;;6735455;88;20201;-79
2023/04/04 00:46:17;;;;;;;1999.90;999.90;;;2.20;99.90;;;;;;6738110;88;20202;-79
2023/04/04 00:56:19;;;;;;;1999.90;999.90;;;2.10;99.90;;;;;;6739363;88;20217;-80
2023/04/04 01:06:20;;;;;;;1999.90;999.90;;;1.90;99.90;;;;;;6736892;88;20212;-80
2023/04/04 01:16:21;;;;;;;1999.90;999.90;;;1.70;99.90;;;;;;6736629;77;20924;-80
2023/04/04 01:26:22;;;;;;;1999.90;999.90;;;1.70;99.90;;;;;;6697139;88;20218;-80
2023/04/04 01:36:41;;;;;;;1999.90;999.90;;;1.60;99.90;;;;;;6704543;88;20332;-78
2023/04/04 01:46:42;;;;;;;1999.90;999.90;;;1.50;99.90;;;;;;6712134;88;20210;-79
2023/04/04 01:56:42;;;;;;;1999.90;999.90;;;1.50;99.90;;;;;;6708299;88;20201;-79
2023/04/04 02:06:43;;;;;;;1999.90;999.90;;;1.30;99.90;;;;;;6709935;88;20197;-78
2023/04/04 02:16:44;;;;;;;1999.90;999.90;;;1.40;99.90;;;;;;6709679;88;20789;-79
2023/04/04 02:26:45;;;;;;;1999.90;999.90;;;1.30;99.90;;;;;;6708364;88;20221;-77
2023/04/04 02:36:46;;;;;;;1999.90;999.90;;;1.30;99.90;;;;;;6703410;88;20193;-78
2023/04/04 02:46:47;;;;;;;1999.90;999.90;;;1.10;99.90;;;;;;6706103;88;20256;-78
2023/04/04 02:56:47;;;;;;;1999.90;999.90;;;0.90;99.90;;;;;;6706678;88;20674;-79
2023/04/04 03:06:48;;;;;;;1999.90;999.90;;;0.80;99.90;;;;;;6716610;88;20207;-79
2023/04/04 03:16:48;;;;;;;1999.90;999.90;;;1.10;99.90;;;;;;6709944;88;20266;-78
2023/04/04 03:26:49;;;;;;;1999.90;999.90;;;1.00;99.90;;;;;;6704768;88;20265;-78
2023/04/04 03:36:52;;;;;;;1999.90;999.90;;;1.00;99.90;;;;;;6704283;88;20214;-78
2023/04/04 03:46:52;;;;;;;1999.90;999.90;;;0.70;99.90;;;;;;6700002;88;20233;-79
2023/04/04 03:56:53;;;;;;;1999.90;999.90;;;1.10;99.90;;;;;;6704220;88;20218;-79
2023/04/04 04:06:54;;;;;;;1999.90;999.90;;;1.00;99.90;;;;;;6704738;88;20804;-78
2023/04/04 04:16:55;;;;;;;1999.90;999.90;;;1.00;99.90;;;;;;6712473;88;20207;-77
2023/04/04 04:26:55;;;;;;;1999.90;999.90;;;0.80;99.90;;;;;;6705415;88;20660;-78
2023/04/04 04:36:56;;;;;;;1999.90;999.90;;;0.90;99.90;;;;;;6707826;88;20178;-78
2023/04/04 04:46:57;;;;;;;1999.90;999.90;;;0.70;99.90;;;;;;6706372;88;20194;-80
2023/04/04 04:56:59;;;;;;;1999.90;999.90;;;0.60;99.90;;;;;;6717616;88;21016;-78
2023/04/04 05:07:00;;;;;;;1999.90;999.90;;;0.40;99.90;;;;;;6718213;88;20305;-79
2023/04/04 05:17:00;;;;;;;1999.90;999.90;;;0.30;99.90;;;;;;6709448;88;20689;-79
2023/04/04 05:27:01;;;;;;;1999.90;999.90;;;0.30;99.90;;;;;;6707549;88;20236;-79
2023/04/04 05:37:02;;;;;;;1999.90;999.90;;;0.30;99.90;;;;;;6708579;88;20223;-80
2023/04/04 05:47:02;;;;;;;1999.90;999.90;;;0.10;99.90;;;;;;6704188;88;20227;-78
2023/04/04 05:57:03;;;;;;;1999.90;999.90;;;0.00;99.90;;;;;;6695560;88;20395;-78
2023/04/04 06:07:03;;;;;;;1999.90;999.90;;;0.10;99.90;;;;;;6697597;88;20222;-78
2023/04/04 06:17:05;;;;;;;1999.90;999.90;;;0.20;99.90;;;;;;6705282;88;20276;-79
2023/04/04 06:27:05;;;;;;;1999.90;999.90;;;0.80;99.90;;;;;;6718374;88;20532;-79
2023/04/04 06:37:06;;;;;;;1999.90;999.90;;;1.30;99.90;;;;;;6722770;88;20196;-80
2023/04/04 06:47:07;;;;;;;1999.90;999.90;;;2.10;99.90;;;;;;6717716;88;20158;-79
2023/04/04 06:57:07;;;;;;;1999.90;999.90;;;2.70;99.90;;;;;;6713640;88;20511;-80
2023/04/04 07:07:08;;;;;;;1999.90;999.90;;;3.20;99.90;;;;;;6708198;88;20677;-81
2023/04/04 07:27:18;;;;;;;1999.90;999.90;;;3.90;99.90;;;;;;6699474;88;20212;-76
2023/04/04 07:37:20;;;;;;;1999.90;999.90;;;4.30;99.90;;;;;;6723632;88;20216;-75
2023/04/04 07:47:21;;;;;;;1999.90;999.90;;;4.90;99.90;;;;;;6707128;88;20318;-76
2023/04/04 07:57:21;;;;;;;1999.90;999.90;;;5.10;99.90;;;;;;6712002;88;20334;-76
2023/04/04 08:07:22;;;;;;;1999.90;999.90;;;5.40;99.60;;;;;;6719337;88;20545;-78
2023/04/04 08:17:23;;;;;;;1999.90;999.90;;;6.20;98.10;;;;;;6699873;88;20631;-76
2023/04/04 08:27:24;;;;;;;1999.90;999.90;;;6.80;97.90;;;;;;6727065;88;20189;-76
2023/04/04 08:37:24;;;;;;;1999.90;999.90;;;7.50;96.10;;;;;;6713435;88;20210;-75
2023/04/04 08:47:26;;;;;;;1999.90;999.90;;;7.80;96.10;;;;;;6714679;88;20315;-75
2023/04/04 08:57:27;;;;;;;1999.90;999.90;;;7.70;95.00;;;;;;6717810;88;20950;-76
2023/04/04 09:07:29;;;;;;;1999.90;999.90;;;7.70;95.50;;;;;;6713549;88;20383;-76
2023/04/04 09:17:30;;;;;;;1999.90;999.90;;;8.40;95.00;;;;;;6710635;88;20300;-76
2023/04/04 09:27:30;;;;;;;1999.90;999.90;;;9.20;93.80;;;;;;6716340;88;20255;-77
2023/04/04 09:37:31;;;;;;;1999.90;999.90;;;10.40;92.60;;;;;;6711538;88;20241;-76
2023/04/04 09:47:32;;;;;;;1999.90;999.90;;;10.20;92.30;;;;;;6717032;88;20194;-77
2023/04/04 09:57:36;;;;;;;1999.90;999.90;;;11.60;90.60;;;;;;6718521;88;20988;-76
2023/04/04 10:07:39;;;;;;;1999.90;999.90;;;11.10;90.00;;;;;;6717407;88;20657;-75
2023/04/04 10:17:40;;;;;;;1999.90;999.90;;;10.10;90.40;;;;;;6718852;88;20745;-76
2023/04/04 10:27:41;;;;;;;1999.90;999.90;;;12.20;89.40;;;;;;6717370;88;20179;-79
2023/04/04 10:38:00;;;;;;;1999.90;999.90;;;13.50;87.30;;;;;;6710991;88;20200;-76
2023/04/04 10:48:02;;;;;;;1999.90;999.90;;;14.70;84.30;;;;;;6714749;88;20178;-77
2023/04/04 10:58:04;;;;;;;1999.90;999.90;;;14.00;82.30;;;;;;6715549;88;20701;-76
2023/04/04 11:08:09;;;;;;;1999.90;999.90;;;14.80;82.00;;;;;;6709511;88;20178;-76
2023/04/04 11:18:12;;;;;;;1999.90;999.90;;;15.50;79.30;;;;;;6711345;88;20580;-76
2023/04/04 11:28:24;;;;;;;1999.90;999.90;;;14.20;78.90;;;;;;6717694;88;20185;-77
2023/04/04 11:38:28;;;;;;;1999.90;999.90;;;13.80;81.10;;;;;;6704996;88;20941;-76
2023/04/04 11:48:29;;;;;;;1999.90;999.90;;;15.70;78.40;;;;;;6709149;88;20738;-76
2023/04/04 11:58:34;;;;;;;1999.90;999.90;;;16.10;75.20;;;;;;6711320;88;20666;-77
2023/04/04 12:08:34;;;;;;;1999.90;999.90;;;15.70;74.40;;;;;;6709740;88;20278;-76
2023/04/04 12:18:36;;;;;;;1999.90;999.90;;;15.10;76.50;;;;;;6710856;88;20741;-76
2023/04/04 12:28:38;;;;;;;1999.90;999.90;;;16.60;74.10;;;;;;6716428;88;20664;-76
2023/04/04 12:38:57;;;;;;;1999.90;999.90;;;16.30;73.50;;;;;;6716913;88;20225;-76
2023/04/04 12:48:58;;;;;;;1999.90;999.90;;;17.60;71.10;;;;;;6710573;88;20191;-76
2023/04/04 12:59:02;;;;;;;1999.90;999.90;;;16.90;71.80;;;;;;6719169;88;20254;-76
2023/04/04 13:09:06;;;;;;;1999.90;999.90;;;18.40;69.30;;;;;;6710164;88;20325;-76
2023/04/04 13:29:10;;;;;;;1999.90;999.90;;;18.10;67.90;;;;;;6704954;88;20199;-78
2023/04/04 13:39:11;;;;;;;1999.90;999.90;;;19.10;66.20;;;;;;6706610;88;20207;-78
2023/04/04 13:49:11;;;;;;;1999.90;999.90;;;17.80;65.90;;;;;;6705586;88;20222;-78
2023/04/04 13:59:12;;;;;;;1999.90;999.90;;;18.20;65.30;;;;;;6705381;88;20201;-78
2023/04/04 14:09:12;;;;;;;1999.90;999.90;;;18.90;64.80;;;;;;6710953;88;20309;-78
2023/04/04 14:19:13;;;;;;;1999.90;999.90;;;18.50;62.40;;;;;;6719173;88;20256;-78
2023/04/04 14:29:14;;;;;;;1999.90;999.90;;;18.00;63.00;;;;;;6717261;88;20197;-79
2023/04/04 14:39:14;;;;;;;1999.90;999.90;;;17.60;63.80;;;;;;6712151;88;20601;-79
2023/04/04 14:49:15;;;;;;;1999.90;999.90;;;16.90;66.00;;;;;;6708877;88;20744;-80
2023/04/04 14:59:15;;;;;;;1999.90;999.90;;;17.80;64.20;;;;;;6707176;88;20254;-78
2023/04/04 15:09:16;;;;;;;1999.90;999.90;;;16.40;63.30;;;;;;6707565;88;20222;-78
2023/04/04 15:19:16;;;;;;;1999.90;999.90;;;16.50;64.10;;;;;;6709418;88;20179;-78
2023/04/04 15:29:17;;;;;;;1999.90;999.90;;;16.60;63.10;;;;;;6706792;88;20186;-80
2023/04/04 15:39:17;;;;;;;1999.90;999.90;;;15.30;63.40;;;;;;6708091;88;20216;-80
2023/04/04 15:49:18;;;;;;;1999.90;999.90;;;14.80;64.40;;;;;;6703472;88;20220;-81
2023/04/04 15:59:18;;;;;;;1999.90;999.90;;;14.70;64.10;;;;;;6713545;88;20204;-78
2023/04/04 16:09:20;;;;;;;1999.90;999.90;;;14.60;64.00;;;;;;6713047;88;20189;-78
2023/04/04 16:19:20;;;;;;;1999.90;999.90;;;14.20;64.80;;;;;;6711098;88;20272;-78
2023/04/04 16:29:21;;;;;;;1999.90;999.90;;;13.90;64.80;;;;;;6705205;88;20213;-78
2023/04/04 16:39:22;;;;;;;1999.90;999.90;;;13.60;64.60;;;;;;6710652;88;20198;-78
2023/04/04 16:49:22;;;;;;;1999.90;999.90;;;13.70;65.20;;;;;;6713174;88;21056;-77
2023/04/04 16:59:23;;;;;;;1999.90;999.90;;;13.00;66.10;;;;;;6706969;88;20197;-78
2023/04/04 17:09:23;;;;;;;1999.90;999.90;;;12.80;66.90;;;;;;6709979;88;20202;-78
2023/04/04 17:19:24;;;;;;;1999.90;999.90;;;12.30;66.90;;;;;;6714383;88;20443;-80
2023/04/04 17:29:27;;;;;;;1999.90;999.90;;;11.80;67.30;;;;;;6711205;88;20212;-77
2023/04/04 17:39:28;;;;;;;1999.90;999.90;;;11.30;69.60;;;;;;6706804;88;20578;-78
2023/04/04 17:49:29;;;;;;;1999.90;999.90;;;10.60;69.10;;;;;;6699635;88;20190;-76
2023/04/04 17:59:30;;;;;;;1999.90;999.90;;;10.20;70.30;;;;;;6713149;88;20244;-77
2023/04/04 18:09:30;;;;;;;1999.90;999.90;;;9.60;74.30;;;;;;6711523;88;20297;-78
2023/04/04 18:19:31;;;;;;;1999.90;999.90;;;9.10;76.40;;;;;;6709197;88;20200;-78
2023/04/04 18:29:32;;;;;;;1999.90;999.90;;;8.60;78.30;;;;;;6710390;88;20690;-78
2023/04/04 18:39:32;;;;;;;1999.90;999.90;;;8.50;79.60;;;;;;6706013;88;20179;-78
2023/04/04 18:49:34;;;;;;;1999.90;999.90;;;8.20;79.30;;;;;;6710588;88;20306;-77
2023/04/04 18:59:35;;;;;;;1999.90;999.90;;;8.10;80.50;;;;;;6717693;88;20496;-79
2023/04/04 19:09:37;;;;;;;1999.90;999.90;;;8.10;80.30;;;;;;6716869;88;20204;-79
2023/04/04 19:19:38;;;;;;;1999.90;999.90;;;8.00;81.50;;;;;;6707122;88;20206;-78
2023/04/04 19:29:38;;;;;;;1999.90;999.90;;;7.60;83.10;;;;;;6693646;88;20253;-78
2023/04/04 19:39:42;;;;;;;1999.90;999.90;;;7.60;84.00;;;;;;6700736;88;21038;-78
2023/04/04 19:49:44;;;;;;;1999.90;999.90;;;7.50;84.00;;;;;;6712537;88;20638;-79
2023/04/04 20:00:04;;;;;;;1999.90;999.90;;;7.50;84.00;;;;;;6696515;88;20182;-78
2023/04/04 20:10:08;;;;;;;1999.90;999.90;;;7.40;84.50;;;;;;6706662;88;20198;-76
2023/04/04 20:20:10;;;;;;;1999.90;999.90;;;7.30;85.40;;;;;;6705033;88;20210;-76
2023/04/04 20:30:11;;;;;;;1999.90;999.90;;;7.10;86.50;;;;;;6702936;88;20642;-75
2023/04/04 20:40:13;;;;;;;1999.90;999.90;;;6.90;86.60;;;;;;6708580;88;20225;-75
2023/04/04 20:50:40;;;;;;;1999.90;999.90;;;6.50;87.30;;;;;;6708715;88;20230;-77
2023/04/04 21:00:41;;;;;;;;;;;6.40;89.00;;;;;;6706524;88;20288;-79
2023/04/04 21:10:52;;;;;;;1999.90;999.90;;;6.30;89.40;;;;;;6702404;88;20197;-76
2023/04/04 21:20:56;;;;;;;1999.90;999.90;;;6.30;89.70;;;;;;6704278;88;21502;-77
2023/04/04 21:30:56;;;;;;;1999.90;999.90;;;6.40;90.00;;;;;;6700277;88;20220;-77
2023/04/04 21:41:20;;;;;;;1999.90;999.90;;;6.20;90.30;;;;;;6700251;88;20171;-76
2023/04/04 21:51:21;;;;;;;1999.90;999.90;;;6.10;91.00;;;;;;6700151;88;20304;-77
2023/04/04 22:01:22;;;;;;;1999.90;999.90;;;6.00;91.60;;;;;;6701206;88;20685;-76
2023/04/04 22:11:24;;;;;;;1999.90;999.90;;;5.80;92.30;;;;;;6698601;88;20256;-76
2023/04/04 22:21:26;;;;;;;1999.90;999.90;;;5.70;92.40;;;;;;6699835;88;20232;-76
2023/04/04 22:31:27;;;;;;;1999.90;999.90;;;5.50;92.70;;;;;;6700258;88;20335;-77
2023/04/04 22:41:28;;;;;;;1999.90;999.90;;;5.40;93.90;;;;;;6700340;88;20206;-76
2023/04/04 22:51:29;;;;;;;1999.90;999.90;;;5.10;94.60;;;;;;6699334;88;20193;-77
2023/04/04 23:01:29;;;;;;;1999.90;999.90;;;4.80;94.70;;;;;;6699803;88;20182;-77
2023/04/04 23:11:30;;;;;;;1999.90;999.90;;;4.60;96.60;;;;;;6700321;88;20220;-77
2023/04/04 23:21:31;;;;;;;1999.90;999.90;;;4.50;97.60;;;;;;6701413;88;20582;-75
2023/04/04 23:31:32;;;;;;;1999.90;999.90;;;4.60;98.90;;;;;;6701993;88;20669;-75
2023/04/04 23:41:32;;;;;;;1999.90;999.90;;;4.20;99.90;;;;;;6701537;88;20249;-76
2023/04/04 23:51:36;;;;;;;1999.90;999.90;;;4.10;99.90;;;;;;6699454;88;20193;-77
